sensor_id;sensor_type;location;lat;lon;timestamp;temperature;humidity
9414;DHT22;4746;35.664;139.738;2022-12-29T00:01:05;8.20;83.80
9414;DHT22;4746;35.664;139.738;2022-12-29T00:03:33;8.20;83.40
9414;DHT22;4746;35.664;139.738;2022-12-29T00:06:01;8.30;83.40
9414;DHT22;4746;35.664;139.738;2022-12-29T00:08:29;8.30;83.60
9414;DHT22;4746;35.664;139.738;2022-12-29T00:11:13;8.30;81.60
9414;DHT22;4746;35.664;139.738;2022-12-29T00:13:45;8.40;82.60
9414;DHT22;4746;35.664;139.738;2022-12-29T00:16:32;8.40;81.00
9414;DHT22;4746;35.664;139.738;2022-12-29T00:19:01;8.40;80.20
9414;DHT22;4746;35.664;139.738;2022-12-29T00:21:29;8.50;80.00
9414;DHT22;4746;35.664;139.738;2022-12-29T00:24:21;8.50;78.50
9414;DHT22;4746;35.664;139.738;2022-12-29T00:29:49;8.70;75.10
9414;DHT22;4746;35.664;139.738;2022-12-29T00:32:35;8.80;74.10
9414;DHT22;4746;35.664;139.738;2022-12-29T00:35:33;8.90;73.20
9414;DHT22;4746;35.664;139.738;2022-12-29T00:38:12;9.00;71.50
9414;DHT22;4746;35.664;139.738;2022-12-29T00:40:59;9.10;70.80
9414;DHT22;4746;35.664;139.738;2022-12-29T00:43:44;9.20;68.20
9414;DHT22;4746;35.664;139.738;2022-12-29T00:46:30;9.30;67.50
9414;DHT22;4746;35.664;139.738;2022-12-29T00:49:00;9.30;65.50
9414;DHT22;4746;35.664;139.738;2022-12-29T00:51:47;9.30;63.70
9414;DHT22;4746;35.664;139.738;2022-12-29T00:54:16;9.50;63.80
9414;DHT22;4746;35.664;139.738;2022-12-29T00:56:48;9.50;62.80
9414;DHT22;4746;35.664;139.738;2022-12-29T00:59:19;9.60;60.70
9414;DHT22;4746;35.664;139.738;2022-12-29T01:01:47;9.60;59.50
9414;DHT22;4746;35.664;139.738;2022-12-29T01:04:15;9.70;60.20
9414;DHT22;4746;35.664;139.738;2022-12-29T01:06:44;9.70;59.50
9414;DHT22;4746;35.664;139.738;2022-12-29T01:09:11;9.70;58.70
9414;DHT22;4746;35.664;139.738;2022-12-29T01:11:58;9.80;58.80
9414;DHT22;4746;35.664;139.738;2022-12-29T01:14:27;9.80;58.40
9414;DHT22;4746;35.664;139.738;2022-12-29T01:16:55;9.80;58.60
9414;DHT22;4746;35.664;139.738;2022-12-29T01:19:24;9.80;57.40
9414;DHT22;4746;35.664;139.738;2022-12-29T01:21:51;9.80;57.30
9414;DHT22;4746;35.664;139.738;2022-12-29T01:24:20;9.90;57.40
9414;DHT22;4746;35.664;139.738;2022-12-29T01:26:49;9.90;57.10
9414;DHT22;4746;35.664;139.738;2022-12-29T01:29:17;10.00;56.90
9414;DHT22;4746;35.664;139.738;2022-12-29T01:31:45;10.00;56.10
9414;DHT22;4746;35.664;139.738;2022-12-29T01:34:13;10.00;55.30
9414;DHT22;4746;35.664;139.738;2022-12-29T01:36:40;10.10;55.40
9414;DHT22;4746;35.664;139.738;2022-12-29T01:39:08;10.20;55.70
9414;DHT22;4746;35.664;139.738;2022-12-29T01:41:35;10.20;55.10
9414;DHT22;4746;35.664;139.738;2022-12-29T01:44:39;10.20;54.90
9414;DHT22;4746;35.664;139.738;2022-12-29T01:50:54;10.40;55.20
9414;DHT22;4746;35.664;139.738;2022-12-29T01:53:10;10.50;55.00
9414;DHT22;4746;35.664;139.738;2022-12-29T01:55:43;10.50;54.40
9414;DHT22;4746;35.664;139.738;2022-12-29T01:58:16;10.60;54.20
9414;DHT22;4746;35.664;139.738;2022-12-29T02:00:47;10.60;53.60
9414;DHT22;4746;35.664;139.738;2022-12-29T02:03:16;10.60;53.30
9414;DHT22;4746;35.664;139.738;2022-12-29T02:07:01;10.70;53.30
9414;DHT22;4746;35.664;139.738;2022-12-29T02:09:08;10.80;52.80
9414;DHT22;4746;35.664;139.738;2022-12-29T02:11:36;10.90;53.10
9414;DHT22;4746;35.664;139.738;2022-12-29T02:14:12;11.00;52.40
9414;DHT22;4746;35.664;139.738;2022-12-29T02:35:35;11.80;50.60
9414;DHT22;4746;35.664;139.738;2022-12-29T02:46:53;12.40;46.70
9414;DHT22;4746;35.664;139.738;2022-12-29T02:52:32;12.50;45.60
9414;DHT22;4746;35.664;139.738;2022-12-29T02:55:04;12.60;45.50
9414;DHT22;4746;35.664;139.738;2022-12-29T02:57:35;12.70;45.30
9414;DHT22;4746;35.664;139.738;2022-12-29T03:00:15;12.90;45.20
9414;DHT22;4746;35.664;139.738;2022-12-29T03:03:16;13.00;44.30
9414;DHT22;4746;35.664;139.738;2022-12-29T03:06:06;13.10;43.60
9414;DHT22;4746;35.664;139.738;2022-12-29T03:12:14;13.30;42.90
9414;DHT22;4746;35.664;139.738;2022-12-29T03:15:32;13.50;42.90
9414;DHT22;4746;35.664;139.738;2022-12-29T03:18:37;13.60;42.40
9414;DHT22;4746;35.664;139.738;2022-12-29T03:21:37;13.70;42.00
9414;DHT22;4746;35.664;139.738;2022-12-29T03:24:34;13.90;41.80
9414;DHT22;4746;35.664;139.738;2022-12-29T03:27:06;14.20;41.30
9414;DHT22;4746;35.664;139.738;2022-12-29T03:29:41;14.30;41.30
9414;DHT22;4746;35.664;139.738;2022-12-29T03:32:13;14.50;39.70
9414;DHT22;4746;35.664;139.738;2022-12-29T03:34:43;14.70;39.10
9414;DHT22;4746;35.664;139.738;2022-12-29T03:37:16;14.90;38.50
9414;DHT22;4746;35.664;139.738;2022-12-29T03:39:47;15.20;38.30
9414;DHT22;4746;35.664;139.738;2022-12-29T03:42:17;15.30;37.60
9414;DHT22;4746;35.664;139.738;2022-12-29T03:44:54;15.40;37.00
9414;DHT22;4746;35.664;139.738;2022-12-29T03:47:24;15.60;35.30
9414;DHT22;4746;35.664;139.738;2022-12-29T03:49:52;15.90;35.40
9414;DHT22;4746;35.664;139.738;2022-12-29T03:52:19;16.10;35.20
9414;DHT22;4746;35.664;139.738;2022-12-29T03:54:47;16.30;35.00
9414;DHT22;4746;35.664;139.738;2022-12-29T03:57:15;16.50;34.20
9414;DHT22;4746;35.664;139.738;2022-12-29T03:59:42;16.70;33.50
9414;DHT22;4746;35.664;139.738;2022-12-29T04:02:10;16.90;33.40
9414;DHT22;4746;35.664;139.738;2022-12-29T04:04:37;17.10;32.80
9414;DHT22;4746;35.664;139.738;2022-12-29T04:07:05;17.40;32.20
9414;DHT22;4746;35.664;139.738;2022-12-29T04:09:32;17.70;32.10
9414;DHT22;4746;35.664;139.738;2022-12-29T04:12:00;18.10;31.60
9414;DHT22;4746;35.664;139.738;2022-12-29T04:14:27;18.20;30.30
9414;DHT22;4746;35.664;139.738;2022-12-29T04:16:55;18.40;30.40
9414;DHT22;4746;35.664;139.738;2022-12-29T04:19:22;18.70;30.50
9414;DHT22;4746;35.664;139.738;2022-12-29T04:21:50;19.20;29.90
9414;DHT22;4746;35.664;139.738;2022-12-29T04:24:18;19.50;29.40
9414;DHT22;4746;35.664;139.738;2022-12-29T04:26:45;19.80;29.40
9414;DHT22;4746;35.664;139.738;2022-12-29T04:29:13;19.90;28.70
9414;DHT22;4746;35.664;139.738;2022-12-29T04:31:40;20.10;28.10
9414;DHT22;4746;35.664;139.738;2022-12-29T04:34:08;20.60;27.90
9414;DHT22;4746;35.664;139.738;2022-12-29T04:36:36;21.00;27.20
9414;DHT22;4746;35.664;139.738;2022-12-29T04:39:06;21.50;27.00
9414;DHT22;4746;35.664;139.738;2022-12-29T04:41:36;22.10;27.00
9414;DHT22;4746;35.664;139.738;2022-12-29T04:44:03;22.30;26.20
9414;DHT22;4746;35.664;139.738;2022-12-29T04:46:31;22.50;26.20
9414;DHT22;4746;35.664;139.738;2022-12-29T04:48:59;22.90;26.00
9414;DHT22;4746;35.664;139.738;2022-12-29T04:51:30;23.20;25.50
9414;DHT22;4746;35.664;139.738;2022-12-29T04:53:58;23.60;25.40
9414;DHT22;4746;35.664;139.738;2022-12-29T04:56:27;24.00;24.70
9414;DHT22;4746;35.664;139.738;2022-12-29T04:58:54;24.20;24.00
9414;DHT22;4746;35.664;139.738;2022-12-29T05:01:22;24.50;24.20
9414;DHT22;4746;35.664;139.738;2022-12-29T05:03:50;24.80;24.10
9414;DHT22;4746;35.664;139.738;2022-12-29T05:06:18;24.80;23.50
9414;DHT22;4746;35.664;139.738;2022-12-29T05:08:46;24.60;22.80
9414;DHT22;4746;35.664;139.738;2022-12-29T05:11:13;24.50;22.80
9414;DHT22;4746;35.664;139.738;2022-12-29T05:13:44;24.50;22.60
9414;DHT22;4746;35.664;139.738;2022-12-29T05:16:12;24.70;22.40
9414;DHT22;4746;35.664;139.738;2022-12-29T05:18:40;24.70;22.20
9414;DHT22;4746;35.664;139.738;2022-12-29T05:21:08;24.60;22.00
9414;DHT22;4746;35.664;139.738;2022-12-29T05:23:35;24.70;22.10
9414;DHT22;4746;35.664;139.738;2022-12-29T05:26:03;24.60;21.40
9414;DHT22;4746;35.664;139.738;2022-12-29T05:28:30;23.80;21.60
9414;DHT22;4746;35.664;139.738;2022-12-29T05:30:58;23.80;22.00
9414;DHT22;4746;35.664;139.738;2022-12-29T05:33:27;23.70;22.50
9414;DHT22;4746;35.664;139.738;2022-12-29T05:35:55;23.80;21.80
9414;DHT22;4746;35.664;139.738;2022-12-29T05:38:23;23.80;21.60
9414;DHT22;4746;35.664;139.738;2022-12-29T05:40:51;23.90;21.50
9414;DHT22;4746;35.664;139.738;2022-12-29T05:43:19;24.00;21.40
9414;DHT22;4746;35.664;139.738;2022-12-29T05:45:49;24.30;21.80
9414;DHT22;4746;35.664;139.738;2022-12-29T05:48:16;24.90;21.60
9414;DHT22;4746;35.664;139.738;2022-12-29T05:50:48;25.60;21.50
9414;DHT22;4746;35.664;139.738;2022-12-29T05:53:17;26.20;21.40
9414;DHT22;4746;35.664;139.738;2022-12-29T05:55:48;26.60;20.90
9414;DHT22;4746;35.664;139.738;2022-12-29T05:58:16;26.80;20.80
9414;DHT22;4746;35.664;139.738;2022-12-29T06:00:44;26.90;20.60
9414;DHT22;4746;35.664;139.738;2022-12-29T06:03:12;26.80;20.50
9414;DHT22;4746;35.664;139.738;2022-12-29T06:05:40;25.80;20.60
9414;DHT22;4746;35.664;139.738;2022-12-29T06:08:07;25.20;21.10
9414;DHT22;4746;35.664;139.738;2022-12-29T06:10:35;24.80;21.10
9414;DHT22;4746;35.664;139.738;2022-12-29T06:13:02;24.40;21.10
9414;DHT22;4746;35.664;139.738;2022-12-29T06:15:32;24.40;21.30
9414;DHT22;4746;35.664;139.738;2022-12-29T06:18:00;24.50;21.50
9414;DHT22;4746;35.664;139.738;2022-12-29T06:20:27;24.40;21.60
9414;DHT22;4746;35.664;139.738;2022-12-29T06:22:55;24.40;21.50
9414;DHT22;4746;35.664;139.738;2022-12-29T06:25:23;24.70;21.80
9414;DHT22;4746;35.664;139.738;2022-12-29T06:27:50;24.40;21.40
9414;DHT22;4746;35.664;139.738;2022-12-29T06:30:18;24.30;21.70
9414;DHT22;4746;35.664;139.738;2022-12-29T06:32:45;23.80;21.80
9414;DHT22;4746;35.664;139.738;2022-12-29T06:35:13;23.90;22.20
9414;DHT22;4746;35.664;139.738;2022-12-29T06:37:40;23.40;22.20
9414;DHT22;4746;35.664;139.738;2022-12-29T06:40:10;23.50;22.60
9414;DHT22;4746;35.664;139.738;2022-12-29T06:42:38;23.80;22.50
9414;DHT22;4746;35.664;139.738;2022-12-29T06:45:06;23.80;22.20
9414;DHT22;4746;35.664;139.738;2022-12-29T06:47:34;23.20;22.10
9414;DHT22;4746;35.664;139.738;2022-12-29T06:50:03;23.30;22.50
9414;DHT22;4746;35.664;139.738;2022-12-29T06:52:31;23.40;22.70
9414;DHT22;4746;35.664;139.738;2022-12-29T06:55:00;23.40;22.60
9414;DHT22;4746;35.664;139.738;2022-12-29T06:57:28;23.40;22.60
9414;DHT22;4746;35.664;139.738;2022-12-29T06:59:55;23.50;22.80
9414;DHT22;4746;35.664;139.738;2022-12-29T07:02:23;23.50;22.90
9414;DHT22;4746;35.664;139.738;2022-12-29T07:04:52;23.60;23.20
9414;DHT22;4746;35.664;139.738;2022-12-29T07:07:20;23.60;23.40
9414;DHT22;4746;35.664;139.738;2022-12-29T07:09:47;23.60;23.50
9414;DHT22;4746;35.664;139.738;2022-12-29T07:12:15;23.40;23.70
9414;DHT22;4746;35.664;139.738;2022-12-29T07:14:42;23.10;23.80
9414;DHT22;4746;35.664;139.738;2022-12-29T07:17:10;22.70;23.80
9414;DHT22;4746;35.664;139.738;2022-12-29T07:19:38;22.20;24.00
9414;DHT22;4746;35.664;139.738;2022-12-29T07:22:05;21.60;24.30
9414;DHT22;4746;35.664;139.738;2022-12-29T07:24:33;21.20;24.70
9414;DHT22;4746;35.664;139.738;2022-12-29T07:27:00;20.70;25.00
9414;DHT22;4746;35.664;139.738;2022-12-29T07:29:28;20.30;25.10
9414;DHT22;4746;35.664;139.738;2022-12-29T07:31:55;19.90;25.30
9414;DHT22;4746;35.664;139.738;2022-12-29T07:34:23;19.60;25.60
9414;DHT22;4746;35.664;139.738;2022-12-29T07:36:50;19.20;25.80
9414;DHT22;4746;35.664;139.738;2022-12-29T07:39:18;18.90;26.20
9414;DHT22;4746;35.664;139.738;2022-12-29T07:41:45;18.50;26.30
9414;DHT22;4746;35.664;139.738;2022-12-29T07:44:13;18.10;26.60
9414;DHT22;4746;35.664;139.738;2022-12-29T07:46:40;17.80;26.60
9414;DHT22;4746;35.664;139.738;2022-12-29T07:49:08;17.60;26.80
9414;DHT22;4746;35.664;139.738;2022-12-29T07:51:36;17.30;26.80
9414;DHT22;4746;35.664;139.738;2022-12-29T07:54:04;17.10;27.10
9414;DHT22;4746;35.664;139.738;2022-12-29T07:56:31;16.80;27.10
9414;DHT22;4746;35.664;139.738;2022-12-29T07:58:59;16.60;27.30
9414;DHT22;4746;35.664;139.738;2022-12-29T08:01:26;16.50;27.50
9414;DHT22;4746;35.664;139.738;2022-12-29T08:03:56;16.30;27.50
9414;DHT22;4746;35.664;139.738;2022-12-29T08:06:24;16.10;27.70
9414;DHT22;4746;35.664;139.738;2022-12-29T08:08:51;15.90;27.90
9414;DHT22;4746;35.664;139.738;2022-12-29T08:11:19;15.80;28.00
9414;DHT22;4746;35.664;139.738;2022-12-29T08:13:47;15.60;28.10
9414;DHT22;4746;35.664;139.738;2022-12-29T08:16:14;15.50;28.30
9414;DHT22;4746;35.664;139.738;2022-12-29T08:18:42;15.40;28.50
9414;DHT22;4746;35.664;139.738;2022-12-29T08:21:10;15.20;28.60
9414;DHT22;4746;35.664;139.738;2022-12-29T08:23:37;15.10;29.20
9414;DHT22;4746;35.664;139.738;2022-12-29T08:26:05;15.00;28.90
9414;DHT22;4746;35.664;139.738;2022-12-29T08:28:33;14.90;28.80
9414;DHT22;4746;35.664;139.738;2022-12-29T08:31:02;14.80;28.80
9414;DHT22;4746;35.664;139.738;2022-12-29T08:33:30;14.80;29.20
9414;DHT22;4746;35.664;139.738;2022-12-29T08:36:05;14.70;29.10
9414;DHT22;4746;35.664;139.738;2022-12-29T08:38:33;14.60;29.30
9414;DHT22;4746;35.664;139.738;2022-12-29T08:41:01;14.50;29.50
9414;DHT22;4746;35.664;139.738;2022-12-29T08:43:30;14.50;29.80
9414;DHT22;4746;35.664;139.738;2022-12-29T08:45:58;14.40;30.10
9414;DHT22;4746;35.664;139.738;2022-12-29T08:48:26;14.30;30.20
9414;DHT22;4746;35.664;139.738;2022-12-29T08:50:54;14.30;30.60
9414;DHT22;4746;35.664;139.738;2022-12-29T08:53:23;14.20;30.90
9414;DHT22;4746;35.664;139.738;2022-12-29T08:55:59;14.20;30.80
9414;DHT22;4746;35.664;139.738;2022-12-29T08:58:28;14.10;31.20
9414;DHT22;4746;35.664;139.738;2022-12-29T09:00:57;14.00;31.20
9414;DHT22;4746;35.664;139.738;2022-12-29T09:03:25;13.80;30.40
9414;DHT22;4746;35.664;139.738;2022-12-29T09:05:54;13.50;29.40
9414;DHT22;4746;35.664;139.738;2022-12-29T09:08:22;13.30;28.00
9414;DHT22;4746;35.664;139.738;2022-12-29T09:10:50;13.10;27.60
9414;DHT22;4746;35.664;139.738;2022-12-29T09:13:18;13.00;27.40
9414;DHT22;4746;35.664;139.738;2022-12-29T09:15:46;12.90;26.70
9414;DHT22;4746;35.664;139.738;2022-12-29T09:18:13;12.80;26.40
9414;DHT22;4746;35.664;139.738;2022-12-29T09:20:41;12.60;26.00
9414;DHT22;4746;35.664;139.738;2022-12-29T09:23:08;12.50;26.00
9414;DHT22;4746;35.664;139.738;2022-12-29T09:25:36;12.40;26.00
9414;DHT22;4746;35.664;139.738;2022-12-29T09:28:04;12.30;26.10
9414;DHT22;4746;35.664;139.738;2022-12-29T09:30:33;12.20;26.20
9414;DHT22;4746;35.664;139.738;2022-12-29T09:33:01;12.10;26.50
9414;DHT22;4746;35.664;139.738;2022-12-29T09:35:29;12.00;26.60
9414;DHT22;4746;35.664;139.738;2022-12-29T09:37:57;11.90;26.70
9414;DHT22;4746;35.664;139.738;2022-12-29T09:40:30;11.90;26.90
9414;DHT22;4746;35.664;139.738;2022-12-29T09:51:54;11.70;27.50
9414;DHT22;4746;35.664;139.738;2022-12-29T10:00:23;11.50;28.10
9414;DHT22;4746;35.664;139.738;2022-12-29T10:03:17;11.40;28.20
9414;DHT22;4746;35.664;139.738;2022-12-29T10:05:53;11.30;28.40
9414;DHT22;4746;35.664;139.738;2022-12-29T10:09:02;11.20;28.70
9414;DHT22;4746;35.664;139.738;2022-12-29T10:22:10;11.00;29.30
9414;DHT22;4746;35.664;139.738;2022-12-29T10:25:25;11.00;29.40
9414;DHT22;4746;35.664;139.738;2022-12-29T10:27:58;11.00;29.50
9414;DHT22;4746;35.664;139.738;2022-12-29T10:30:33;10.90;29.60
9414;DHT22;4746;35.664;139.738;2022-12-29T10:33:08;10.90;29.70
9414;DHT22;4746;35.664;139.738;2022-12-29T10:35:42;10.80;29.70
9414;DHT22;4746;35.664;139.738;2022-12-29T10:38:38;10.80;29.80
9414;DHT22;4746;35.664;139.738;2022-12-29T10:41:25;10.70;29.80
9414;DHT22;4746;35.664;139.738;2022-12-29T10:44:03;10.70;29.90
9414;DHT22;4746;35.664;139.738;2022-12-29T10:46:35;10.70;30.00
9414;DHT22;4746;35.664;139.738;2022-12-29T10:49:06;10.60;30.10
9414;DHT22;4746;35.664;139.738;2022-12-29T10:51:43;10.60;30.20
9414;DHT22;4746;35.664;139.738;2022-12-29T10:54:33;10.60;30.10
9414;DHT22;4746;35.664;139.738;2022-12-29T10:57:10;10.60;30.40
9414;DHT22;4746;35.664;139.738;2022-12-29T10:59:42;10.60;30.50
9414;DHT22;4746;35.664;139.738;2022-12-29T11:07:52;10.50;30.60
9414;DHT22;4746;35.664;139.738;2022-12-29T11:15:45;10.40;30.80
9414;DHT22;4746;35.664;139.738;2022-12-29T11:18:32;10.40;31.00
9414;DHT22;4746;35.664;139.738;2022-12-29T11:21:06;10.40;31.10
9414;DHT22;4746;35.664;139.738;2022-12-29T11:24:02;10.30;31.10
9414;DHT22;4746;35.664;139.738;2022-12-29T11:26:32;10.20;31.30
9414;DHT22;4746;35.664;139.738;2022-12-29T11:31:48;10.10;31.40
9414;DHT22;4746;35.664;139.738;2022-12-29T11:34:40;10.10;31.70
9414;DHT22;4746;35.664;139.738;2022-12-29T11:37:14;10.00;31.70
9414;DHT22;4746;35.664;139.738;2022-12-29T11:42:56;10.00;31.90
9414;DHT22;4746;35.664;139.738;2022-12-29T11:45:34;10.00;32.00
9414;DHT22;4746;35.664;139.738;2022-12-29T11:48:12;9.80;32.80
9414;DHT22;4746;35.664;139.738;2022-12-29T11:50:54;9.80;32.90
9414;DHT22;4746;35.664;139.738;2022-12-29T11:53:38;9.80;33.10
9414;DHT22;4746;35.664;139.738;2022-12-29T11:56:20;9.80;33.40
9414;DHT22;4746;35.664;139.738;2022-12-29T12:01:57;9.80;33.40
9414;DHT22;4746;35.664;139.738;2022-12-29T12:04:30;9.80;33.50
9414;DHT22;4746;35.664;139.738;2022-12-29T12:07:20;9.80;33.50
9414;DHT22;4746;35.664;139.738;2022-12-29T12:10:01;9.70;33.20
9414;DHT22;4746;35.664;139.738;2022-12-29T12:15:08;9.60;33.50
9414;DHT22;4746;35.664;139.738;2022-12-29T12:17:53;9.60;33.50
9414;DHT22;4746;35.664;139.738;2022-12-29T12:20:46;9.70;33.80
9414;DHT22;4746;35.664;139.738;2022-12-29T12:26:32;9.50;33.90
9414;DHT22;4746;35.664;139.738;2022-12-29T12:34:51;9.30;34.10
9414;DHT22;4746;35.664;139.738;2022-12-29T12:43:58;9.20;34.60
9414;DHT22;4746;35.664;139.738;2022-12-29T12:52:39;9.10;35.00
9414;DHT22;4746;35.664;139.738;2022-12-29T12:59:02;9.00;35.30
9414;DHT22;4746;35.664;139.738;2022-12-29T13:07:43;8.80;35.50
9414;DHT22;4746;35.664;139.738;2022-12-29T13:10:40;8.80;35.70
9414;DHT22;4746;35.664;139.738;2022-12-29T13:16:41;8.80;36.00
9414;DHT22;4746;35.664;139.738;2022-12-29T13:22:17;8.70;36.40
9414;DHT22;4746;35.664;139.738;2022-12-29T13:31:33;8.80;37.00
9414;DHT22;4746;35.664;139.738;2022-12-29T13:34:47;8.90;37.30
9414;DHT22;4746;35.664;139.738;2022-12-29T13:40:32;9.10;37.50
9414;DHT22;4746;35.664;139.738;2022-12-29T13:43:05;9.30;37.30
9414;DHT22;4746;35.664;139.738;2022-12-29T13:45:34;9.30;36.90
9414;DHT22;4746;35.664;139.738;2022-12-29T13:51:29;9.30;36.10
9414;DHT22;4746;35.664;139.738;2022-12-29T13:57:02;9.30;36.20
9414;DHT22;4746;35.664;139.738;2022-12-29T14:05:36;9.40;35.90
9414;DHT22;4746;35.664;139.738;2022-12-29T14:08:05;9.50;35.60
9414;DHT22;4746;35.664;139.738;2022-12-29T14:10:51;9.50;35.90
9414;DHT22;4746;35.664;139.738;2022-12-29T14:13:23;9.40;35.70
9414;DHT22;4746;35.664;139.738;2022-12-29T14:15:57;9.40;35.70
9414;DHT22;4746;35.664;139.738;2022-12-29T14:18:28;9.40;36.10
9414;DHT22;4746;35.664;139.738;2022-12-29T14:23:46;9.40;35.60
9414;DHT22;4746;35.664;139.738;2022-12-29T14:26:35;9.30;35.40
9414;DHT22;4746;35.664;139.738;2022-12-29T14:31:52;9.30;35.90
9414;DHT22;4746;35.664;139.738;2022-12-29T14:34:42;9.40;35.90
9414;DHT22;4746;35.664;139.738;2022-12-29T14:37:30;9.30;35.40
9414;DHT22;4746;35.664;139.738;2022-12-29T14:40:23;9.30;35.60
9414;DHT22;4746;35.664;139.738;2022-12-29T14:42:55;9.30;35.30
9414;DHT22;4746;35.664;139.738;2022-12-29T14:45:29;9.20;35.80
9414;DHT22;4746;35.664;139.738;2022-12-29T14:50:51;9.30;35.40
9414;DHT22;4746;35.664;139.738;2022-12-29T14:56:16;9.30;34.90
9414;DHT22;4746;35.664;139.738;2022-12-29T14:59:02;9.30;34.80
9414;DHT22;4746;35.664;139.738;2022-12-29T15:01:50;9.30;35.00
9414;DHT22;4746;35.664;139.738;2022-12-29T15:04:32;9.30;34.70
9414;DHT22;4746;35.664;139.738;2022-12-29T15:07:08;9.20;34.90
9414;DHT22;4746;35.664;139.738;2022-12-29T15:10:26;9.10;34.90
9414;DHT22;4746;35.664;139.738;2022-12-29T15:12:49;9.10;35.60
9414;DHT22;4746;35.664;139.738;2022-12-29T15:15:23;9.10;35.50
9414;DHT22;4746;35.664;139.738;2022-12-29T15:17:53;9.10;35.50
9414;DHT22;4746;35.664;139.738;2022-12-29T15:20:27;9.00;35.50
9414;DHT22;4746;35.664;139.738;2022-12-29T15:22:58;9.00;35.50
9414;DHT22;4746;35.664;139.738;2022-12-29T15:25:30;9.00;35.30
9414;DHT22;4746;35.664;139.738;2022-12-29T15:28:06;8.90;35.20
9414;DHT22;4746;35.664;139.738;2022-12-29T15:31:01;8.70;35.90
9414;DHT22;4746;35.664;139.738;2022-12-29T15:33:30;8.70;36.20
9414;DHT22;4746;35.664;139.738;2022-12-29T15:36:14;8.70;35.80
9414;DHT22;4746;35.664;139.738;2022-12-29T15:38:49;8.70;36.00
9414;DHT22;4746;35.664;139.738;2022-12-29T15:41:40;8.70;36.20
9414;DHT22;4746;35.664;139.738;2022-12-29T15:44:30;8.70;36.10
9414;DHT22;4746;35.664;139.738;2022-12-29T15:47:05;8.60;35.90
9414;DHT22;4746;35.664;139.738;2022-12-29T15:49:49;8.60;35.80
9414;DHT22;4746;35.664;139.738;2022-12-29T15:52:23;8.60;35.90
9414;DHT22;4746;35.664;139.738;2022-12-29T15:54:59;8.50;35.90
9414;DHT22;4746;35.664;139.738;2022-12-29T15:57:31;8.50;36.00
9414;DHT22;4746;35.664;139.738;2022-12-29T16:02:59;8.40;36.20
9414;DHT22;4746;35.664;139.738;2022-12-29T16:05:35;8.30;36.20
9414;DHT22;4746;35.664;139.738;2022-12-29T16:08:28;8.30;36.40
9414;DHT22;4746;35.664;139.738;2022-12-29T16:11:00;8.20;36.60
9414;DHT22;4746;35.664;139.738;2022-12-29T16:13:33;8.20;36.70
9414;DHT22;4746;35.664;139.738;2022-12-29T16:16:22;8.20;36.90
9414;DHT22;4746;35.664;139.738;2022-12-29T16:18:55;8.20;37.10
9414;DHT22;4746;35.664;139.738;2022-12-29T16:21:29;8.20;37.20
9414;DHT22;4746;35.664;139.738;2022-12-29T16:24:17;8.20;37.20
9414;DHT22;4746;35.664;139.738;2022-12-29T16:26:50;8.20;37.30
9414;DHT22;4746;35.664;139.738;2022-12-29T16:29:34;8.10;37.60
9414;DHT22;4746;35.664;139.738;2022-12-29T16:32:02;8.00;37.80
9414;DHT22;4746;35.664;139.738;2022-12-29T16:38:22;7.90;38.20
9414;DHT22;4746;35.664;139.738;2022-12-29T16:40:58;7.90;38.50
9414;DHT22;4746;35.664;139.738;2022-12-29T16:43:36;7.80;38.80
9414;DHT22;4746;35.664;139.738;2022-12-29T16:46:25;7.70;39.10
9414;DHT22;4746;35.664;139.738;2022-12-29T16:48:56;7.70;39.30
9414;DHT22;4746;35.664;139.738;2022-12-29T16:51:35;7.60;39.60
9414;DHT22;4746;35.664;139.738;2022-12-29T16:54:05;7.60;39.80
9414;DHT22;4746;35.664;139.738;2022-12-29T16:56:44;7.60;40.00
9414;DHT22;4746;35.664;139.738;2022-12-29T16:59:47;7.60;40.10
9414;DHT22;4746;35.664;139.738;2022-12-29T17:02:21;7.60;40.10
9414;DHT22;4746;35.664;139.738;2022-12-29T17:04:52;7.60;40.30
9414;DHT22;4746;35.664;139.738;2022-12-29T17:07:28;7.60;40.30
9414;DHT22;4746;35.664;139.738;2022-12-29T17:09:56;7.60;40.40
9414;DHT22;4746;35.664;139.738;2022-12-29T17:12:27;7.50;40.40
9414;DHT22;4746;35.664;139.738;2022-12-29T17:17:44;7.60;40.50
9414;DHT22;4746;35.664;139.738;2022-12-29T17:20:15;7.60;40.70
9414;DHT22;4746;35.664;139.738;2022-12-29T17:22:49;7.60;40.60
9414;DHT22;4746;35.664;139.738;2022-12-29T17:25:40;7.50;40.70
9414;DHT22;4746;35.664;139.738;2022-12-29T17:28:12;7.50;40.90
9414;DHT22;4746;35.664;139.738;2022-12-29T17:30:48;7.50;41.10
9414;DHT22;4746;35.664;139.738;2022-12-29T17:33:19;7.50;41.40
9414;DHT22;4746;35.664;139.738;2022-12-29T17:35:47;7.40;41.50
9414;DHT22;4746;35.664;139.738;2022-12-29T17:38:30;7.40;41.60
9414;DHT22;4746;35.664;139.738;2022-12-29T17:41:01;7.40;41.60
9414;DHT22;4746;35.664;139.738;2022-12-29T17:43:29;7.40;41.80
9414;DHT22;4746;35.664;139.738;2022-12-29T17:45:57;7.30;41.90
9414;DHT22;4746;35.664;139.738;2022-12-29T17:48:25;7.30;42.00
9414;DHT22;4746;35.664;139.738;2022-12-29T17:50:53;7.30;42.50
9414;DHT22;4746;35.664;139.738;2022-12-29T17:53:26;7.30;42.80
9414;DHT22;4746;35.664;139.738;2022-12-29T17:55:55;7.20;43.30
9414;DHT22;4746;35.664;139.738;2022-12-29T17:58:27;7.20;43.60
9414;DHT22;4746;35.664;139.738;2022-12-29T18:00:58;7.10;44.00
9414;DHT22;4746;35.664;139.738;2022-12-29T18:03:33;7.10;44.30
9414;DHT22;4746;35.664;139.738;2022-12-29T18:06:03;7.10;45.00
9414;DHT22;4746;35.664;139.738;2022-12-29T18:08:40;7.00;45.60
9414;DHT22;4746;35.664;139.738;2022-12-29T18:11:22;7.00;46.10
9414;DHT22;4746;35.664;139.738;2022-12-29T18:13:52;6.80;47.00
9414;DHT22;4746;35.664;139.738;2022-12-29T18:16:21;6.80;47.60
9414;DHT22;4746;35.664;139.738;2022-12-29T18:18:49;6.80;48.80
9414;DHT22;4746;35.664;139.738;2022-12-29T18:21:21;6.70;48.90
9414;DHT22;4746;35.664;139.738;2022-12-29T18:23:50;6.70;49.60
9414;DHT22;4746;35.664;139.738;2022-12-29T18:26:21;6.70;50.50
9414;DHT22;4746;35.664;139.738;2022-12-29T18:28:50;6.60;50.40
9414;DHT22;4746;35.664;139.738;2022-12-29T18:31:24;6.60;50.80
9414;DHT22;4746;35.664;139.738;2022-12-29T18:33:54;6.60;51.60
9414;DHT22;4746;35.664;139.738;2022-12-29T18:36:23;6.60;52.50
9414;DHT22;4746;35.664;139.738;2022-12-29T18:38:51;6.60;53.50
9414;DHT22;4746;35.664;139.738;2022-12-29T18:41:22;6.60;53.60
9414;DHT22;4746;35.664;139.738;2022-12-29T18:43:51;6.60;54.40
9414;DHT22;4746;35.664;139.738;2022-12-29T18:46:21;6.60;55.10
9414;DHT22;4746;35.664;139.738;2022-12-29T18:48:50;6.60;55.20
9414;DHT22;4746;35.664;139.738;2022-12-29T18:51:24;6.60;55.80
9414;DHT22;4746;35.664;139.738;2022-12-29T18:53:52;6.50;55.80
9414;DHT22;4746;35.664;139.738;2022-12-29T18:56:20;6.50;56.30
9414;DHT22;4746;35.664;139.738;2022-12-29T18:58:49;6.50;55.80
9414;DHT22;4746;35.664;139.738;2022-12-29T19:01:21;6.50;56.70
9414;DHT22;4746;35.664;139.738;2022-12-29T19:03:51;6.50;56.40
9414;DHT22;4746;35.664;139.738;2022-12-29T19:06:22;6.50;57.80